Time;durP1;ratioP1;P1;durP2;ratioP2;P2;SDS_P1;SDS_P2;PMS_P1;PMS_P2;Temp;Humidity;BMP_temperature;BMP_pressure;BME280_temperature;BME280_humidity;BME280_pressure;Samples;Min_cycle;Max_cycle;Signal;HPM_P1;HPM_P2
2022/03/31 00:02:21;;;;;;;;;;;8.80;99.90;;;7.70;100.00;93799.88;10472094;28;1967;-74
2022/03/31 00:07:24;;;;;;;;;;;8.70;99.90;;;7.57;100.00;93807.69;10474669;28;1852;-75
2022/03/31 00:12:27;;;;;;;;;;;8.80;99.90;;;7.70;100.00;93798.03;10475984;28;1934;-74
2022/03/31 00:17:30;;;;;;;;;;;8.70;99.90;;;7.67;100.00;93798.63;10481233;28;1816;-74
2022/03/31 00:33:16;;;;;;;;;;;8.70;99.90;;;7.61;100.00;93791.81;10486904;28;2095;-74
2022/03/31 00:38:19;;;;;;;;;;;8.70;99.90;;;7.50;100.00;93777.88;10478120;28;1965;-75
2022/03/31 00:43:23;;;;;;;;;;;8.80;99.90;;;7.43;100.00;93777.50;10475650;28;1971;-76
2022/03/31 00:48:27;;;;;;;;;;;8.60;99.90;;;7.47;100.00;93777.72;10502516;28;2003;-74
2022/03/31 00:53:30;;;;;;;;;;;8.40;99.90;;;7.18;100.00;93773.53;10490107;28;1908;-75
2022/03/31 00:58:33;;;;;;;;;;;8.40;99.90;;;7.15;100.00;93768.00;10474071;28;2256;-75
2022/03/31 01:03:36;;;;;;;;;;;8.20;99.90;;;7.11;100.00;93772.34;10500286;28;1910;-74
2022/03/31 01:08:39;;;;;;;;;;;8.20;99.90;;;7.10;100.00;93760.88;10477075;28;1910;-75
2022/03/31 01:13:42;;;;;;;;;;;8.20;99.90;;;7.18;100.00;93754.03;10482862;28;1851;-75
2022/03/31 01:18:45;;;;;;;;;;;8.00;99.90;;;7.15;100.00;93734.06;10491320;28;1849;-73
2022/03/31 01:23:48;;;;;;;;;;;8.20;99.90;;;6.95;100.00;93735.28;10510845;28;1916;-74
2022/03/31 01:28:52;;;;;;;;;;;8.10;99.90;;;6.74;100.00;93734.13;10516616;28;1847;-75
2022/03/31 01:33:55;;;;;;;;;;;7.90;99.90;;;6.82;100.00;93730.78;10503702;28;1855;-74
2022/03/31 01:38:58;;;;;;;;;;;7.80;99.90;;;6.90;100.00;93730.06;10511499;28;2007;-74
2022/03/31 01:44:03;;;;;;;;;;;7.80;99.90;;;7.13;100.00;93719.44;10511688;28;1957;-74
2022/03/31 01:49:06;;;;;;;;;;;7.90;99.90;;;7.07;100.00;93709.94;10507248;28;1832;-74
2022/03/31 01:54:14;;;;;;;;;;;8.10;99.90;;;7.03;100.00;93702.53;10507832;28;1990;-74
2022/03/31 01:59:17;;;;;;;;;;;8.20;99.90;;;6.98;100.00;93702.63;10482901;28;1880;-73
2022/03/31 02:04:20;;;;;;;;;;;8.20;99.90;;;6.75;100.00;93693.78;10477510;28;1981;-74
2022/03/31 02:09:23;;;;;;;;;;;8.00;99.90;;;6.58;100.00;93687.50;10481630;28;1905;-75
2022/03/31 02:14:26;;;;;;;;;;;7.90;99.90;;;6.50;100.00;93687.09;10475088;28;2017;-75
2022/03/31 02:19:30;;;;;;;;;;;;;;;6.52;100.00;93678.00;10475591;28;2072;-76
2022/03/31 02:24:34;;;;;;;;;;;;;;;6.58;100.00;93679.47;10477842;28;2025;-75
2022/03/31 02:29:38;;;;;;;;;;;;;;;6.47;100.00;93663.66;10471410;28;1929;-75
2022/03/31 02:34:42;;;;;;;;;;;;;;;6.22;100.00;93648.19;10481730;28;1946;-76
2022/03/31 02:39:45;;;;;;;;;;;7.50;99.90;;;6.30;100.00;93649.34;10480506;28;1911;-75
2022/03/31 02:44:48;;;;;;;;;;;7.10;99.90;;;6.28;100.00;93646.19;10476835;28;2024;-75
2022/03/31 02:49:52;;;;;;;;;;;;;;;6.14;100.00;93640.88;10479793;28;1852;-75
2022/03/31 03:00:16;;;;;;;;;;;7.20;99.90;;;5.93;100.00;93645.84;10481744;28;2073;-75
2022/03/31 03:05:19;;;;;;;;;;;7.00;99.90;;;6.25;100.00;93644.94;10479217;28;2153;-75
2022/03/31 03:10:24;;;;;;;;;;;7.20;99.90;;;6.44;100.00;93631.47;10477852;28;2141;-75
2022/03/31 03:15:27;;;;;;;;;;;7.40;99.90;;;6.41;100.00;93624.84;10479845;28;2038;-75
2022/03/31 03:20:30;;;;;;;;;;;7.30;99.90;;;6.46;100.00;93631.94;10488590;28;1914;-74
2022/03/31 03:25:34;;;;;;;;;;;7.50;99.90;;;6.40;100.00;93633.94;10487625;28;2048;-76
2022/03/31 03:30:38;;;;;;;;;;;7.40;99.90;;;6.43;100.00;93630.69;10487593;28;2092;-74
2022/03/31 03:35:40;;;;;;;;;;;7.40;99.90;;;6.44;100.00;93621.59;10482546;28;1931;-76
2022/03/31 03:40:43;;;;;;;;;;;7.40;99.90;;;6.33;100.00;93622.88;10479009;28;1994;-76
2022/03/31 03:45:46;;;;;;;;;;;7.30;99.90;;;6.37;100.00;93609.75;10470054;28;1919;-76
2022/03/31 03:50:49;;;;;;;;;;;7.40;99.90;;;6.47;100.00;93604.94;10482677;28;2005;-76
2022/03/31 03:55:52;;;;;;;;;;;7.40;99.90;;;6.29;100.00;93611.22;10486624;28;2006;-75
2022/03/31 04:00:55;;;;;;;;;;;7.40;99.90;;;6.25;100.00;93606.78;10477083;28;1994;-75
2022/03/31 04:05:59;;;;;;;;;;;7.30;99.90;;;6.28;100.00;93614.97;10476294;28;2042;-76
2022/03/31 04:11:02;;;;;;;;;;;7.30;99.90;;;6.34;100.00;93613.00;10479240;28;1952;-74
2022/03/31 04:16:05;;;;;;;;;;;7.40;99.90;;;6.34;100.00;93611.13;10476953;28;1887;-76
2022/03/31 04:21:10;;;;;;;;;;;7.30;99.90;;;6.45;100.00;93617.03;10478794;28;2018;-76
2022/03/31 04:26:13;;;;;;;;;;;7.30;99.90;;;6.47;100.00;93607.63;10478657;28;2049;-73
2022/03/31 04:31:16;;;;;;;;;;;7.40;99.90;;;6.40;100.00;93617.13;10475555;28;1904;-74
2022/03/31 04:36:20;;;;;;;;;;;7.40;99.90;;;6.27;100.00;93604.59;10478916;28;1973;-77
2022/03/31 04:41:22;;;;;;;;;;;7.30;99.90;;;6.35;100.00;93599.34;10474466;28;1781;-74
2022/03/31 04:46:25;;;;;;;;;;;7.20;99.90;;;6.55;100.00;93611.44;10472121;28;1986;-76
2022/03/31 04:51:28;;;;;;;;;;;7.50;99.90;;;6.60;100.00;93602.56;10477311;28;1979;-76
2022/03/31 04:56:31;;;;;;;;;;;7.50;99.90;;;6.55;100.00;93595.44;10477399;28;2006;-75
2022/03/31 05:01:34;;;;;;;;;;;7.60;99.90;;;6.57;100.00;93600.50;10492056;28;1981;-74
2022/03/31 05:06:37;;;;;;;;;;;7.60;99.90;;;6.58;100.00;93596.72;10473210;28;2028;-76
2022/03/31 05:11:40;;;;;;;;;;;7.70;99.90;;;6.54;100.00;93603.75;10476256;28;2002;-75
2022/03/31 05:16:44;;;;;;;;;;;7.60;99.90;;;6.58;100.00;93599.41;10473435;28;1950;-75
2022/03/31 05:21:47;;;;;;;;;;;7.60;99.90;;;6.61;100.00;93598.78;10472839;28;1971;-74
2022/03/31 05:26:52;;;;;;;;;;;7.70;99.90;;;6.61;100.00;93594.22;10473178;28;1918;-75
2022/03/31 05:31:55;;;;;;;;;;;7.70;99.90;;;6.59;100.00;93593.75;10476528;28;1950;-76
2022/03/31 05:36:59;;;;;;;;;;;7.70;99.90;;;6.66;100.00;93580.78;10490174;28;1988;-73
2022/03/31 05:42:02;;;;;;;;;;;7.70;99.90;;;6.74;100.00;93580.06;10469312;28;1958;-75
2022/03/31 05:47:06;;;;;;;;;;;7.70;99.90;;;6.77;100.00;93586.69;10474023;28;2068;-73
2022/03/31 05:52:09;;;;;;;;;;;7.80;99.90;;;6.89;100.00;93576.25;10470613;28;1951;-74
2022/03/31 05:57:12;;;;;;;;;;;7.80;99.90;;;6.98;100.00;93582.44;10481668;28;1938;-74
2022/03/31 06:02:15;;;;;;;;;;;8.00;99.90;;;7.15;100.00;93575.63;10474060;28;2064;-73
2022/03/31 06:07:38;;;;;;;;;;;8.10;99.90;;;7.20;100.00;93575.50;10475265;28;2062;-73
2022/03/31 06:12:42;;;;;;;;;;;8.20;99.90;;;7.30;100.00;93578.69;10481648;28;1977;-73
2022/03/31 06:17:46;;;;;;;;;;;8.20;99.90;;;7.67;100.00;93589.25;10473995;28;1884;-74
2022/03/31 06:22:50;;;;;;;;;;;8.40;99.90;;;7.81;100.00;93580.03;10483223;28;1951;-76
2022/03/31 06:27:54;;;;;;;;;;;8.70;99.90;;;7.85;100.00;93570.28;10485213;28;1991;-73
2022/03/31 06:32:58;;;;;;;;;;;8.80;99.90;;;7.80;100.00;93578.44;10490171;28;2009;-79
2022/03/31 06:38:02;;;;;;;;;;;8.70;99.90;;;7.94;100.00;93573.00;10478445;28;1948;-74
2022/03/31 06:43:05;;;;;;;;;;;8.80;99.90;;;7.72;100.00;93571.19;10476750;28;1840;-73
2022/03/31 06:48:09;;;;;;;;;;;8.90;99.90;;;7.81;100.00;93573.88;10482830;28;1973;-75
2022/03/31 06:53:12;;;;;;;;;;;8.80;99.90;;;7.89;100.00;93562.44;10479477;28;1957;-75
2022/03/31 06:58:15;;;;;;;;;;;8.90;99.90;;;7.99;100.00;93558.69;10480322;28;2034;-74
2022/03/31 07:03:18;;;;;;;;;;;8.90;99.90;;;7.86;100.00;93550.47;10479448;28;1955;-74
2022/03/31 07:08:21;;;;;;;;;;;8.90;99.90;;;7.95;100.00;93552.38;10481762;28;1997;-74
2022/03/31 07:13:24;;;;;;;;;;;9.00;99.90;;;7.77;100.00;93548.88;10499534;28;1977;-75
2022/03/31 07:18:27;;;;;;;;;;;8.90;99.90;;;8.04;100.00;93543.28;10481512;28;2037;-74
2022/03/31 07:23:30;;;;;;;;;;;9.00;99.90;;;7.93;100.00;93544.66;10475835;28;1997;-74
2022/03/31 07:28:33;;;;;;;;;;;9.10;99.90;;;8.29;100.00;93543.66;10473297;28;1926;-74
2022/03/31 07:33:36;;;;;;;;;;;9.20;99.90;;;8.29;100.00;93544.44;10476686;28;1914;-74
2022/03/31 07:38:39;;;;;;;;;;;9.30;99.90;;;8.17;100.00;93544.25;10469379;28;2080;-75
2022/03/31 07:43:42;;;;;;;;;;;9.40;99.90;;;8.18;100.00;93548.50;10481695;28;2002;-74
2022/03/31 07:48:46;;;;;;;;;;;9.30;99.90;;;8.12;100.00;93547.06;10471861;28;1989;-74
2022/03/31 07:53:49;;;;;;;;;;;9.20;99.90;;;8.23;100.00;93536.88;10473397;28;1906;-74
2022/03/31 07:58:52;;;;;;;;;;;9.20;99.90;;;8.75;99.76;93540.38;10472591;28;1938;-74
2022/03/31 08:03:55;;;;;;;;;;;9.40;99.90;;;9.40;95.20;93527.81;10474623;28;1943;-76
2022/03/31 08:08:58;;;;;;;;;;;9.90;99.90;;;9.60;95.31;93524.41;10467593;28;1989;-75
2022/03/31 08:14:01;;;;;;;;;;;10.30;99.90;;;10.31;87.79;93520.28;10472626;28;1958;-76
2022/03/31 08:19:04;;;;;;;;;;;;;;;10.32;87.61;93514.59;10474111;28;2339;-73
2022/03/31 08:24:08;;;;;;;;;;;11.00;99.90;;;10.68;85.35;93513.22;10469852;28;1918;-73
2022/03/31 08:29:11;;;;;;;;;;;11.30;99.90;;;10.55;84.87;93513.16;10469416;28;1941;-70
2022/03/31 08:34:14;;;;;;;;;;;11.30;99.90;;;10.71;83.44;93523.31;10472856;28;1973;-70
2022/03/31 08:39:18;;;;;;;;;;;11.50;99.90;;;10.39;84.08;93519.44;10477111;28;1977;-72
2022/03/31 08:44:20;;;;;;;;;;;11.40;99.90;;;10.33;84.80;93515.38;10480148;28;1988;-70
2022/03/31 08:49:24;;;;;;;;;;;11.30;99.90;;;10.57;82.81;93525.50;10469373;28;1926;-70
2022/03/31 08:54:27;;;;;;;;;;;11.40;99.90;;;10.88;79.04;93519.69;10473032;28;1860;-70
2022/03/31 08:59:30;;;;;;;;;;;11.60;99.90;;;10.41;80.24;93520.69;10468647;28;1892;-71
2022/03/31 09:04:33;;;;;;;;;;;11.60;99.90;;;10.60;81.18;93516.75;10469875;28;1975;-70
2022/03/31 09:09:36;;;;;;;;;;;11.50;99.90;;;10.43;82.83;93510.41;10465242;28;2070;-73
2022/03/31 09:14:39;;;;;;;;;;;11.60;99.90;;;10.50;80.65;93517.97;10466112;28;1919;-74
2022/03/31 09:19:42;;;;;;;;;;;11.40;99.90;;;10.81;78.37;93504.91;10465647;28;1950;-73
2022/03/31 09:24:45;;;;;;;;;;;11.50;99.90;;;10.78;77.84;93513.59;10465245;28;2007;-73
2022/03/31 09:29:48;;;;;;;;;;;11.70;99.90;;;10.90;77.45;93509.41;10463239;28;2029;-73
2022/03/31 09:34:51;;;;;;;;;;;11.70;99.90;;;10.39;79.86;93511.41;10465984;28;1976;-74
2022/03/31 09:39:54;;;;;;;;;;;11.70;99.90;;;10.83;76.95;93505.34;10466400;28;2112;-72
2022/03/31 09:44:57;;;;;;;;;;;11.70;99.90;;;11.36;74.83;93506.41;10471489;28;2044;-71
2022/03/31 09:50:01;;;;;;;;;;;12.00;99.90;;;10.26;80.08;93503.25;10472864;28;1887;-72
2022/03/31 09:55:03;;;;;;;;;;;11.80;99.90;;;10.57;79.34;93509.38;10466390;28;2009;-70
2022/03/31 10:00:06;;;;;;;;;;;11.50;99.90;;;10.41;79.63;93509.94;10476545;28;2046;-70
2022/03/31 10:05:09;;;;;;;;;;;11.60;99.90;;;10.62;77.62;93507.25;10464105;28;2295;-70
2022/03/31 10:10:12;;;;;;;;;;;11.60;99.90;;;10.60;78.07;93509.50;10466814;28;2009;-70
2022/03/31 10:15:15;;;;;;;;;;;11.40;99.90;;;10.53;77.42;93506.53;10486132;28;2026;-70
2022/03/31 10:20:21;;;;;;;;;;;11.70;99.90;;;10.49;76.87;93495.66;10475190;28;2104;-70
2022/03/31 10:25:24;;;;;;;;;;;11.60;99.90;;;10.61;76.93;93494.16;10460161;28;1982;-69
2022/03/31 10:30:27;;;;;;;;;;;11.60;99.90;;;10.51;76.03;93498.03;10464281;28;1993;-71
2022/03/31 10:35:30;;;;;;;;;;;11.60;99.90;;;11.01;72.39;93486.38;10464061;28;1859;-71
2022/03/31 10:40:33;;;;;;;;;;;12.00;99.90;;;10.97;73.17;93488.94;10476956;28;1937;-71
2022/03/31 10:45:36;;;;;;;;;;;12.10;99.90;;;10.70;74.95;93476.84;10468078;28;1943;-70
2022/03/31 10:50:39;;;;;;;;;;;12.00;99.90;;;10.29;77.59;93469.59;10468371;28;1907;-69
2022/03/31 10:55:42;;;;;;;;;;;11.60;99.90;;;10.50;77.44;93461.56;10476447;28;2058;-73
2022/03/31 11:00:46;;;;;;;;;;;11.40;99.90;;;11.01;73.66;93457.59;10467994;28;1934;-70
2022/03/31 11:05:49;;;;;;;;;;;11.90;99.90;;;10.89;75.15;93454.09;10470379;28;1971;-70
2022/03/31 11:10:53;;;;;;;;;;;11.90;99.90;;;10.68;76.42;93460.25;10477266;28;1900;-70
2022/03/31 11:15:57;;;;;;;;;;;11.80;99.90;;;10.03;78.74;93445.59;10480608;28;1852;-70
2022/03/31 11:21:00;;;;;;;;;;;11.40;99.90;;;10.31;78.15;93445.09;10480589;28;1859;-71
2022/03/31 11:26:06;;;;;;;;;;;11.20;99.90;;;10.56;76.42;93433.38;10494928;28;1985;-71
2022/03/31 11:31:10;;;;;;;;;;;11.40;99.90;;;10.58;77.18;93438.41;10485717;28;1866;-70
2022/03/31 11:36:13;;;;;;;;;;;11.60;99.90;;;10.68;77.48;93436.06;10486244;28;1853;-70
2022/03/31 11:41:16;;;;;;;;;;;11.70;99.90;;;10.65;76.57;93436.75;10502884;28;1823;-70
2022/03/31 11:46:40;;;;;;;;;;;11.60;99.90;;;10.40;78.05;93433.19;10503663;28;2026;-70
2022/03/31 11:51:43;;;;;;;;;;;11.60;99.90;;;10.74;77.46;93420.53;10490573;28;2185;-70
2022/03/31 11:56:48;;;;;;;;;;;11.60;99.90;;;10.62;78.25;93417.81;10488602;28;1807;-70
2022/03/31 12:01:51;;;;;;;;;;;11.70;99.90;;;10.88;76.20;93404.09;10477487;28;1841;-72
2022/03/31 12:06:54;;;;;;;;;;;12.00;99.90;;;10.91;77.92;93404.25;10481668;28;1957;-72
2022/03/31 12:11:57;;;;;;;;;;;11.90;99.90;;;10.42;77.95;93400.63;10474694;28;1819;-71
2022/03/31 12:17:00;;;;;;;;;;;11.90;99.90;;;10.70;76.95;93404.31;10462841;28;1848;-71
2022/03/31 12:22:03;;;;;;;;;;;11.90;99.90;;;10.97;75.52;93405.59;10468528;28;1889;-71
2022/03/31 12:27:06;;;;;;;;;;;11.80;99.90;;;11.37;72.76;93399.59;10472919;28;2013;-70
2022/03/31 12:32:10;;;;;;;;;;;12.00;99.90;;;11.30;71.58;93393.97;10472502;28;1922;-71
2022/03/31 12:37:13;;;;;;;;;;;12.10;99.90;;;11.94;68.95;93385.22;10468061;28;1848;-71
2022/03/31 12:42:17;;;;;;;;;;;12.60;99.90;;;11.73;67.72;93384.56;10469830;28;1842;-70
2022/03/31 12:47:22;;;;;;;;;;;12.70;99.90;;;11.37;70.12;93384.22;10473867;28;1946;-70
2022/03/31 12:52:25;;;;;;;;;;;12.60;99.90;;;11.67;69.08;93372.47;10473660;28;1879;-72
2022/03/31 12:57:33;;;;;;;;;;;12.60;99.90;;;11.92;68.53;93365.16;10471020;28;1914;-71
2022/03/31 13:02:36;;;;;;;;;;;13.00;99.90;;;11.59;68.31;93358.00;10464718;28;1811;-71
2022/03/31 13:07:39;;;;;;;;;;;13.00;99.90;;;11.55;68.93;93357.88;10462050;28;1922;-70
2022/03/31 13:12:43;;;;;;;;;;;12.80;99.90;;;11.57;69.49;93360.22;10463755;28;1840;-71
2022/03/31 13:17:46;;;;;;;;;;;12.50;99.90;;;11.09;71.50;93357.22;10473254;28;1822;-70
2022/03/31 13:22:54;;;;;;;;;;;12.30;99.90;;;11.42;70.20;93356.34;10464168;28;1823;-72
2022/03/31 13:27:57;;;;;;;;;;;12.20;99.90;;;11.54;70.16;93355.53;10467583;28;1917;-71
2022/03/31 13:33:00;;;;;;;;;;;12.50;99.90;;;11.21;71.22;93359.16;10464822;28;1841;-70
2022/03/31 13:38:04;;;;;;;;;;;12.40;99.90;;;11.52;70.57;93353.19;10468707;28;1793;-71
2022/03/31 13:43:08;;;;;;;;;;;12.50;99.90;;;11.63;70.42;93348.13;10465019;28;1814;-72
2022/03/31 13:48:11;;;;;;;;;;;12.50;99.90;;;11.48;70.43;93341.53;10463755;28;1973;-71
2022/03/31 14:03:59;;;;;;;;;;;12.00;99.90;;;10.88;72.37;93336.91;10475376;28;1872;-71
2022/03/31 14:09:03;;;;;;;;;;;11.80;99.90;;;11.15;71.11;93343.56;10466566;28;1985;-71
2022/03/31 14:14:07;;;;;;;;;;;11.90;99.90;;;10.79;73.15;93335.13;10462931;28;1846;-70
2022/03/31 14:19:12;;;;;;;;;;;11.90;99.90;;;10.58;74.32;93322.91;10467535;28;1838;-72
2022/03/31 14:24:15;;;;;;;;;;;11.70;99.90;;;10.78;73.80;93328.19;10466451;28;1896;-71
2022/03/31 14:29:18;;;;;;;;;;;11.70;99.90;;;10.85;73.15;93324.16;10473275;28;1977;-70
2022/03/31 14:34:20;;;;;;;;;;;11.80;99.90;;;10.98;72.79;93315.78;10473736;28;1808;-72
2022/03/31 14:39:23;;;;;;;;;;;11.90;99.90;;;11.28;71.42;93300.19;10471735;28;1724;-71
2022/03/31 14:44:28;;;;;;;;;;;12.10;99.90;;;11.07;71.74;93304.94;10469493;28;1765;-72
2022/03/31 14:49:30;;;;;;;;;;;12.20;99.90;;;11.07;72.63;93304.94;10467391;28;1971;-72
2022/03/31 14:54:33;;;;;;;;;;;12.10;99.90;;;11.13;73.04;93298.19;10471916;28;1837;-72
2022/03/31 14:59:36;;;;;;;;;;;12.10;99.90;;;11.22;69.18;93296.16;10469647;28;1728;-71
2022/03/31 15:04:43;;;;;;;;;;;12.30;99.90;;;10.55;73.12;93300.16;10463752;28;1769;-72
2022/03/31 15:15:06;;;;;;;;;;;11.80;99.90;;;10.72;75.09;93289.22;10474805;28;1903;-73
2022/03/31 15:20:10;;;;;;;;;;;11.80;99.90;;;10.73;75.39;93290.78;10429470;28;1213343;-71
2022/03/31 15:25:13;;;;;;;;;;;11.80;99.90;;;10.36;73.43;93291.84;10497861;28;1766;-72
2022/03/31 15:30:16;;;;;;;;;;;11.70;99.90;;;10.19;74.46;93293.56;10474305;28;2009;-72
2022/03/31 15:35:19;;;;;;;;;;;11.40;99.90;;;10.25;74.09;93291.50;10470282;28;1867;-71
2022/03/31 15:40:22;;;;;;;;;;;11.40;99.90;;;10.23;74.13;93294.47;10468543;28;1764;-73
2022/03/31 15:45:26;;;;;;;;;;;11.40;99.90;;;9.97;78.33;93296.59;10469369;28;1819;-71
2022/03/31 15:50:29;;;;;;;;;;;11.20;99.90;;;9.27;88.54;93296.34;10476972;28;1945;-73
2022/03/31 15:55:32;;;;;;;;;;;10.60;99.90;;;8.83;92.02;93292.34;10466791;28;1866;-72
2022/03/31 16:00:35;;;;;;;;;;;10.20;99.90;;;8.83;92.23;93298.47;10477723;28;1776;-71
2022/03/31 16:05:39;;;;;;;;;;;10.00;99.90;;;8.74;93.43;93305.78;10467947;28;1786;-73
2022/03/31 16:10:43;;;;;;;;;;;9.80;99.90;;;8.38;96.15;93303.53;10470169;28;1922;-72
2022/03/31 16:15:46;;;;;;;;;;;9.60;99.90;;;8.17;96.70;93310.66;10495099;28;1900;-72
2022/03/31 16:20:49;;;;;;;;;;;9.50;99.90;;;8.11;97.15;93307.34;10472781;28;1836;-73
2022/03/31 16:25:52;;;;;;;;;;;9.20;99.90;;;8.33;96.18;93317.88;10472913;28;1839;-73
2022/03/31 16:30:55;;;;;;;;;;;9.50;99.90;;;8.02;96.71;93306.59;10474675;28;1926;-71
2022/03/31 16:35:58;;;;;;;;;;;9.30;99.90;;;8.07;96.99;93309.09;10473063;28;1634;-71
2022/03/31 16:41:03;;;;;;;;;;;9.40;99.90;;;7.97;96.85;93314.78;10464655;28;1870;-71
2022/03/31 16:46:07;;;;;;;;;;;9.10;99.90;;;7.69;98.72;93322.31;10471807;28;1988;-72
2022/03/31 16:51:11;;;;;;;;;;;8.90;99.90;;;7.70;99.71;93315.88;10469838;28;1918;-73
2022/03/31 16:56:13;;;;;;;;;;;8.60;99.90;;;7.52;100.00;93331.94;10462461;28;1870;-73
2022/03/31 17:01:17;;;;;;;;;;;8.60;99.90;;;7.48;100.00;93325.63;10466824;28;2252;-71
2022/03/31 17:06:20;;;;;;;;;;;8.50;99.90;;;7.20;100.00;93329.69;10482175;28;1828;-72
2022/03/31 17:11:23;;;;;;;;;;;8.40;99.90;;;7.02;100.00;93326.97;10471096;28;1938;-72
2022/03/31 17:16:27;;;;;;;;;;;8.20;99.90;;;6.89;100.00;93335.91;10471203;28;1736;-73
2022/03/31 17:21:30;;;;;;;;;;;8.00;99.90;;;6.82;100.00;93346.25;10472192;28;2303;-70
2022/03/31 17:26:33;;;;;;;;;;;8.00;99.90;;;6.72;100.00;93341.16;10473333;28;1997;-73
2022/03/31 17:31:37;;;;;;;;;;;7.80;99.90;;;6.75;100.00;93348.56;10481177;28;1917;-74
2022/03/31 17:36:40;;;;;;;;;;;7.70;99.90;;;6.59;100.00;93348.19;10479526;28;1861;-72
2022/03/31 17:41:43;;;;;;;;;;;7.60;99.90;;;6.48;100.00;93346.88;10470139;28;1886;-73
2022/03/31 17:46:46;;;;;;;;;;;7.50;99.90;;;6.45;100.00;93364.28;10471737;28;1796;-74
2022/03/31 17:51:50;;;;;;;;;;;7.50;99.90;;;6.38;100.00;93361.28;10475581;28;1913;-73
2022/03/31 17:56:53;;;;;;;;;;;7.40;99.90;;;6.34;100.00;93362.19;10466997;28;1848;-75
2022/03/31 18:01:56;;;;;;;;;;;7.40;99.90;;;6.37;100.00;93374.91;10460012;28;1904;-75
2022/03/31 18:06:59;;;;;;;;;;;7.40;99.90;;;6.28;100.00;93363.41;10465960;28;1556;-71
2022/03/31 18:12:02;;;;;;;;;;;7.30;99.90;;;6.17;100.00;93373.53;10466643;28;1993;-73
2022/03/31 18:17:05;;;;;;;;;;;7.20;99.90;;;6.02;100.00;93372.03;10465887;28;1480;-70
2022/03/31 18:22:14;;;;;;;;;;;7.00;99.90;;;6.08;100.00;93383.34;10464566;28;1542;-72
2022/03/31 18:27:18;;;;;;;;;;;7.00;99.90;;;6.07;100.00;93389.78;10471426;28;1975;-74
2022/03/31 18:37:42;;;;;;;;;;;7.10;99.90;;;6.04;100.00;93393.81;10466133;28;1431;-74
2022/03/31 18:42:46;;;;;;;;;;;7.00;99.90;;;6.12;100.00;93397.69;10501092;22;2625;-72
2022/03/31 18:47:52;;;;;;;;;;;7.10;99.90;;;6.15;100.00;93397.06;10508871;28;1906;-73
2022/03/31 18:52:56;;;;;;;;;;;7.10;99.90;;;6.20;100.00;93403.06;10517494;28;1486;-72
2022/03/31 18:57:59;;;;;;;;;;;7.20;99.90;;;6.15;100.00;93410.38;10520663;28;1463;-73
2022/03/31 19:03:03;;;;;;;;;;;7.20;99.90;;;6.17;100.00;93416.19;10537417;28;1387;-74
2022/03/31 19:08:06;;;;;;;;;;;7.10;99.90;;;5.95;100.00;93417.78;10532298;28;1967;-72
2022/03/31 19:13:10;;;;;;;;;;;7.00;99.90;;;5.90;100.00;93423.19;10536368;28;1508;-73
2022/03/31 19:18:14;;;;;;;;;;;6.90;99.90;;;5.80;100.00;93423.44;10534472;28;1477;-73
2022/03/31 19:23:20;;;;;;;;;;;6.80;99.90;;;5.83;100.00;93428.16;10529737;28;1502;-71
2022/03/31 19:28:22;;;;;;;;;;;6.90;99.90;;;5.78;100.00;93430.91;10524386;28;1977;-73
2022/03/31 19:33:25;;;;;;;;;;;6.80;99.90;;;5.93;100.00;93427.97;10523105;28;1505;-72
2022/03/31 19:38:28;;;;;;;;;;;6.90;99.90;;;5.82;100.00;93436.47;10516436;28;1405;-73
2022/03/31 19:43:31;;;;;;;;;;;6.90;99.90;;;5.80;100.00;93428.75;10519739;28;1465;-72
2022/03/31 19:48:35;;;;;;;;;;;6.70;99.90;;;6.02;100.00;93435.25;10516234;28;1985;-73
2022/03/31 19:53:40;;;;;;;;;;;6.80;99.90;;;5.86;100.00;93437.44;10512942;28;1423;-72
2022/03/31 19:58:43;;;;;;;;;;;6.80;99.90;;;5.90;100.00;93439.19;10519870;28;1481;-72
2022/03/31 20:03:46;;;;;;;;;;;6.90;99.90;;;5.88;100.00;93433.38;10515814;28;1415;-72
2022/03/31 20:08:49;;;;;;;;;;;7.00;99.90;;;5.81;100.00;93434.88;10518730;28;2348;-71
2022/03/31 20:13:52;;;;;;;;;;;6.80;99.90;;;5.82;100.00;93426.56;10519440;28;1418;-71
2022/03/31 20:18:55;;;;;;;;;;;6.90;99.90;;;5.85;100.00;93423.31;10516083;28;1720;-71
2022/03/31 20:23:59;;;;;;;;;;;6.90;99.90;;;5.80;100.00;93430.66;10512969;28;1513;-72
2022/03/31 20:29:02;;;;;;;;;;;6.80;99.90;;;5.72;100.00;93421.47;10517258;28;1969;-71
2022/03/31 20:34:05;;;;;;;;;;;6.70;99.90;;;5.66;100.00;93426.13;10517240;28;1416;-72
2022/03/31 20:39:08;;;;;;;;;;;6.70;99.90;;;5.66;100.00;93417.31;10515509;28;1556;-73
2022/03/31 20:44:12;;;;;;;;;;;6.70;99.90;;;5.66;100.00;93418.13;10518910;28;2020;-72
2022/03/31 20:49:16;;;;;;;;;;;6.70;99.90;;;5.68;100.00;93417.84;10526321;28;1918;-72
2022/03/31 20:54:19;;;;;;;;;;;6.60;99.90;;;5.67;100.00;93419.72;10520846;28;1329;-72
2022/03/31 20:59:22;;;;;;;;;;;6.60;99.90;;;5.62;100.00;93422.47;10513747;28;2061;-71
2022/03/31 21:04:25;;;;;;;;;;;6.60;99.90;;;5.77;100.00;93417.91;10521471;28;1790;-70
2022/03/31 21:09:29;;;;;;;;;;;6.80;99.90;;;5.76;100.00;93422.44;10514998;28;1979;-72
2022/03/31 21:14:33;;;;;;;;;;;6.70;99.90;;;5.81;100.00;93414.34;10517071;28;1978;-72
2022/03/31 21:19:37;;;;;;;;;;;6.70;99.90;;;5.84;100.00;93416.38;10511022;28;1870;-73
2022/03/31 21:24:40;;;;;;;;;;;6.80;99.90;;;5.75;100.00;93417.41;10515616;28;1923;-74
2022/03/31 21:29:43;;;;;;;;;;;6.80;99.90;;;5.78;100.00;93419.47;10522486;28;2002;-72
2022/03/31 21:34:46;;;;;;;;;;;6.80;99.90;;;5.75;100.00;93415.53;10524920;28;2346;-72
2022/03/31 21:39:49;;;;;;;;;;;6.70;99.90;;;5.75;100.00;93418.22;10517261;28;1835;-71
2022/03/31 21:44:53;;;;;;;;;;;6.80;99.90;;;5.72;100.00;93410.78;10519247;28;1806;-71
2022/03/31 21:49:56;;;;;;;;;;;6.70;99.90;;;5.80;100.00;93423.44;10505678;28;1882;-72
2022/03/31 21:54:59;;;;;;;;;;;6.70;99.90;;;5.93;100.00;93427.97;10512725;28;2096;-72
2022/03/31 22:00:03;;;;;;;;;;;6.80;99.90;;;5.81;100.00;93426.88;10516646;28;1869;-71
2022/03/31 22:05:06;;;;;;;;;;;6.80;99.90;;;5.78;100.00;93425.59;10519759;28;1886;-72
2022/03/31 22:15:32;;;;;;;;;;;6.70;99.90;;;5.73;100.00;93427.59;10532097;28;1837;-70
2022/03/31 22:20:35;;;;;;;;;;;6.80;99.90;;;5.81;100.00;93429.56;10505986;28;1878;-72
2022/03/31 22:25:38;;;;;;;;;;;6.80;99.90;;;5.74;100.00;93424.63;10518220;28;1815;-73
2022/03/31 22:30:44;;;;;;;;;;;6.90;99.90;;;5.79;100.00;93416.53;10521972;28;1981;-72
2022/03/31 22:35:47;;;;;;;;;;;6.80;99.90;;;5.80;100.00;93423.44;10527738;28;1874;-73
2022/03/31 22:40:50;;;;;;;;;;;6.80;99.90;;;5.78;100.00;93416.81;10524195;28;1830;-71
2022/03/31 22:45:53;;;;;;;;;;;6.80;99.90;;;5.76;100.00;93424.31;10516967;28;1831;-71
2022/03/31 22:50:56;;;;;;;;;;;6.70;99.90;;;5.70;100.00;93428.97;10517347;28;1918;-70
2022/03/31 22:55:59;;;;;;;;;;;6.80;99.90;;;5.89;100.00;93416.28;10516811;28;1815;-71
2022/03/31 23:01:03;;;;;;;;;;;6.70;99.90;;;5.83;100.00;93425.47;10518418;28;1900;-71
2022/03/31 23:06:06;;;;;;;;;;;6.80;99.90;;;5.91;100.00;93419.47;10518050;28;1867;-71
2022/03/31 23:11:10;;;;;;;;;;;6.80;99.90;;;5.78;100.00;93414.94;10526696;28;1937;-71
2022/03/31 23:16:14;;;;;;;;;;;6.80;99.90;;;5.78;100.00;93414.13;10534517;28;1874;-72
2022/03/31 23:21:17;;;;;;;;;;;6.80;99.90;;;5.82;100.00;93418.56;10516958;28;1924;-72
2022/03/31 23:26:20;;;;;;;;;;;6.80;99.90;;;5.78;100.00;93414.13;10526924;28;1878;-72
2022/03/31 23:31:24;;;;;;;;;;;6.80;99.90;;;5.66;100.00;93406.66;10520365;28;1910;-71
2022/03/31 23:36:26;;;;;;;;;;;6.70;99.90;;;5.82;100.00;93405.25;10525401;28;1850;-71
2022/03/31 23:41:30;;;;;;;;;;;6.70;99.90;;;5.71;100.00;93409.22;10522390;28;1823;-71
2022/03/31 23:46:33;;;;;;;;;;;6.70;99.90;;;5.78;100.00;93401.59;10518855;28;1803;-71
2022/03/31 23:51:37;;;;;;;;;;;6.70;99.90;;;5.76;100.00;93401.13;10523618;28;1906;-72
2022/03/31 23:56:40;;;;;;;;;;;6.70;99.90;;;5.66;100.00;93404.00;10524097;28;1879;-72
